Aérodrome :
LOGIN :

S'inscrire | Disclaimer

   EN    FR    IT 

 










Légende :    VFR   VFR Marginal   IFR   IFR Intensif   IFR Très Intensif
Visi : 
Plafond : 
>= 8 km
>= 3000ft
5 à 8 km
1000 à 3000 ft
1500m à 5 km
500 à 1000 ft
800 à 1500m
200 à 500 ft
< 800m
< 200 ft
Symboles :   Orages  Brouillard  Fortes neiges  Fortes précipitations  Vent > 20 kt
SIGMETs :   Divers  Orages  Givrage  Turbulence  Onde Orograph.  Cendres Volcan.






- Altitude de l'aérodrome : 219 ft
- Code IATA : DNR


LFRD - Dinard

DERNIER METAR :
  • 160130Z AUTO 18010KT 9999 BKN030 OVC150 03/00 Q1028 NOSIG

METARs EXPIRÉS :
  • 160100Z AUTO 17009KT 9999 OVC031 03/00 Q1029 NOSIG
  • 160030Z AUTO 17007KT 9999 BKN032 BKN160 OVC190 02/00 Q1029 NOSIG
  • 160000Z AUTO 17007KT CAVOK 02/M00 Q1029 NOSIG
  • 152330Z AUTO 17006KT CAVOK 03/M00 Q1030 NOSIG
  • 152300Z AUTO 16005KT CAVOK 03/M00 Q1030 NOSIG

TAF TAF LFRD
Valide du 16 à 00h jusqu'au 17 à 00h UTC


152300Z 1600/1624 18010KT CAVOK
TEMPO 1604/1608 4000 RA BKN008 OVC030
BECMG 1606/1608 18015G25KT OVC008
TEMPO 1608/1613 4000 DZRA
PROB40
TEMPO 1610/1613 2000 DZ OVC003
BECMG 1613/1615 31015KT BKN016
ATIS : +33 2 99 16 81 50



MET'MAP, la Météo Aéronautique d'un coup d'oeil ! - Copyright ORBIFLY Décembre 2007 - Disclaimer

ORBIFLY MET'MAP TEAM :

Programmation & Développement : Alexandra Zaïnal
Sur une idée originale de : Baudouin d'Aumeries
Assistance à la programmation : Marc-Olivier Méhu
Soutien technique & logistique : Manuel Goepfert

Contact : metmap@orbifly.com




SOURCES & CREDITS :

   NOAA